^^
Meteo Knjazevac Station Historical Data
Daily Summary for February 1, 2021 Units:  English    Metric   Both
Daily Weekly Monthly Yearly Custom
  High: Low: Average:
Temperature: 77 °F 66 °F 70.4 °F
Dew Point: 62 °F 57.5 °F 59.7 °F
Humidity: 77% 59% 69%
Wind Speed: 5mph 0mph 1.2mph
Wind Gust: 8mph - -
Wind- - SSW
Pressure: 29.96 in 29.90 in -
Precipitation: 0.00 in    
Historical Graphs
 
 
Tabular Data for February 1, 2021
Time Temperature Dew Point Pressure Wind Wind Speed Wind Gust Humidity Rainfall Rate (Hourly) solar Conditions
00:00 77 °F 61.6 °F 29.90 in Calm   3 mph 59% 0.00 in 0 W/m2
00:10 76.8 °F 61.4 °F 29.90 in North 1 mph 5 mph 59% 0.00 in 0 W/m2
00:20 76.3 °F 61.4 °F 29.91 in North 1 mph 3 mph 60% 0.00 in 0 W/m2
00:30 75.9 °F 61 °F 29.91 in NW 2 mph 5 mph 60% 0.00 in 0 W/m2
00:40 75.7 °F 60.4 °F 29.91 in South 5 mph 7 mph 59% 0.00 in 0 W/m2
00:50 75.7 °F 60.4 °F 29.91 in SSW 1 mph 8 mph 59% 0.00 in 0 W/m2
01:00 75.6 °F 60.3 °F 29.91 in NNE 5 mph 6 mph 59% 0.00 in 0 W/m2
01:10 75.2 °F 61.3 °F 29.91 in North 2 mph 6 mph 62% 0.00 in 0 W/m2
01:20 74.7 °F 60.8 °F 29.91 in NNE 2 mph 7 mph 62% 0.00 in 0 W/m2
01:30 74.3 °F 60.9 °F 29.91 in North 1 mph 5 mph 63% 0.00 in 0 W/m2
01:40 73.8 °F 60.8 °F 29.91 in Calm   4 mph 64% 0.00 in 0 W/m2
01:50 73.4 °F 60.5 °F 29.91 in NNE 1 mph 5 mph 64% 0.00 in 0 W/m2
02:00 73 °F 60.6 °F 29.91 in Calm   3 mph 65% 0.00 in 0 W/m2
02:10 72.3 °F 60.8 °F 29.91 in NNW 1 mph 2 mph 67% 0.00 in 0 W/m2
02:20 72 °F 59.6 °F 29.91 in West 1 mph 4 mph 65% 0.00 in 0 W/m2
02:30 71.6 °F 59.2 °F 29.92 in NNE 2 mph 5 mph 65% 0.00 in 0 W/m2
02:40 71.6 °F 58.8 °F 29.92 in SSE 2 mph 5 mph 64% 0.00 in 0 W/m2
02:50 71.4 °F 59 °F 29.92 in Calm   4 mph 65% 0.00 in 0 W/m2
03:00 70.9 °F 59.4 °F 29.92 in North 1 mph 3 mph 67% 0.00 in 0 W/m2
03:10 70.2 °F 59.1 °F 29.92 in NNW 1 mph 3 mph 68% 0.00 in 0 W/m2
03:20 69.5 °F 58.8 °F 29.92 in West 2 mph 3 mph 69% 0.00 in 0 W/m2
03:30 68.4 °F 58.2 °F 29.92 in Calm   3 mph 70% 0.00 in 0 W/m2
03:40 68 °F 58.6 °F 29.93 in NNW 1 mph 4 mph 72% 0.00 in 0 W/m2
03:50 67.8 °F 58.5 °F 29.93 in North 1 mph 3 mph 72% 0.00 in 0 W/m2
04:00 67.8 °F 58.5 °F 29.93 in North 2 mph 2 mph 72% 0.00 in 0 W/m2
04:10 67.6 °F 58.3 °F 29.93 in NNE 2 mph 4 mph 72% 0.00 in 0 W/m2
04:20 67.5 °F 58.1 °F 29.93 in ENE 1 mph 3 mph 72% 0.00 in 0 W/m2
04:30 67.3 °F 58.3 °F 29.94 in West 2 mph 3 mph 73% 0.00 in 0 W/m2
04:40 66.6 °F 57.6 °F 29.94 in WNW 1 mph 3 mph 73% 0.00 in 0 W/m2
04:50 66.4 °F 57.5 °F 29.94 in WNW 1 mph 3 mph 73% 0.00 in 0 W/m2
05:00 66.2 °F 57.7 °F 29.94 in Calm   2 mph 74% 0.00 in 4 W/m2
05:10 66 °F 57.5 °F 29.94 in NNE 3 mph 4 mph 74% 0.00 in 8 W/m2
05:20 66.4 °F 57.5 °F 29.95 in ENE 2 mph 5 mph 73% 0.00 in 19 W/m2
05:30 66.7 °F 58.2 °F 29.94 in South 1 mph 5 mph 74% 0.00 in 28 W/m2
05:40 66.4 °F 58.2 °F 29.95 in Calm   3 mph 75% 0.00 in 32 W/m2
05:50 66.4 °F 58.2 °F 29.95 in West 1 mph 4 mph 75% 0.00 in 32 W/m2
06:00 66.6 °F 58.4 °F 29.95 in NNW 1 mph 2 mph 75% 0.00 in 39 W/m2
06:10 66.7 °F 58.6 °F 29.95 in Calm   2 mph 75% 0.00 in 43 W/m2
06:20 67.1 °F 58.9 °F 29.95 in WNW 1 mph 2 mph 75% 0.00 in 64 W/m2
06:30 67.5 °F 60 °F 29.95 in West 1 mph 2 mph 77% 0.00 in 79 W/m2
06:40 67.6 °F 60.2 °F 29.95 in NNW 1 mph 2 mph 77% 0.00 in 106 W/m2
06:50 68.2 °F 60 °F 29.96 in NW 2 mph 3 mph 75% 0.00 in 216 W/m2
07:00 68.7 °F 61.2 °F 29.95 in West 2 mph 3 mph 77% 0.00 in 111 W/m2
07:10 69.1 °F 60.8 °F 29.96 in Calm   3 mph 75% 0.00 in 118 W/m2
07:20 69.6 °F 61.3 °F 29.96 in Calm   2 mph 75% 0.00 in 138 W/m2
07:30 70.3 °F 59.7 °F 29.96 in Calm   3 mph 69% 0.00 in 364 W/m2
07:40 71.1 °F 62 °F 29.96 in Calm   2 mph 73% 0.00 in 381 W/m2
07:50 71.8 °F 61.1 °F 29.96 in Calm   2 mph 69% 0.00 in 415 W/m2
08:00 72.5 °F 61.7 °F 29.95 in SSE 2 mph 5 mph 69% 0.00 in 460 W/m2
08:10 73.2 °F 62 °F 29.96 in WSW 1 mph 2 mph 68% 0.00 in 486 W/m2
Knjazevac, Serbia
Compliments of Weather Underground - 2 mb